Time;durP1;ratioP1;P1;durP2;ratioP2;P2;SDS_P1;SDS_P2;PMS_P1;PMS_P2;Temp;Humidity;BMP_temperature;BMP_pressure;BME280_temperature;BME280_humidity;BME280_pressure;Samples;Min_cycle;Max_cycle;Signal;HPM_P1;HPM_P2
2022/07/13 00:02:24;;;;;;;2.47;1.42;;;21.90;57.90;;;;;;4815351;29;20399;-74
2022/07/13 00:04:50;;;;;;;1.50;1.20;;;21.90;57.80;;;;;;4800539;29;20038;-74
2022/07/13 00:07:16;;;;;;;5.07;1.65;;;22.00;57.60;;;;;;4814099;29;20030;-74
2022/07/13 00:09:42;;;;;;;2.47;1.48;;;22.00;58.00;;;;;;4815589;29;20054;-74
2022/07/13 00:12:08;;;;;;;2.85;1.58;;;22.00;57.70;;;;;;4816779;29;20086;-75
2022/07/13 00:14:33;;;;;;;2.28;1.45;;;22.00;57.60;;;;;;4815378;29;20072;-74
2022/07/13 00:16:59;;;;;;;2.80;1.60;;;22.00;57.70;;;;;;4815415;29;20034;-74
2022/07/13 00:19:25;;;;;;;2.92;1.60;;;22.00;57.50;;;;;;4816670;29;20031;-74
2022/07/13 00:21:52;;;;;;;2.90;1.83;;;22.00;57.70;;;;;;4814984;29;20133;-74
2022/07/13 00:24:18;;;;;;;2.00;1.30;;;22.00;57.50;;;;;;4844974;29;20034;-74
2022/07/13 00:26:44;;;;;;;2.85;1.35;;;22.00;57.60;;;;;;4815905;29;20035;-74
2022/07/13 00:29:10;;;;;;;3.20;1.70;;;22.00;57.60;;;;;;4828805;29;20045;-74
2022/07/13 00:31:36;;;;;;;2.13;1.58;;;22.00;57.50;;;;;;4814695;29;20115;-74
2022/07/13 00:34:01;;;;;;;3.15;1.58;;;21.90;57.50;;;;;;4814699;29;20031;-74
2022/07/13 00:36:27;;;;;;;2.08;1.58;;;21.90;57.50;;;;;;4814084;29;20519;-74
2022/07/13 00:38:53;;;;;;;4.47;1.70;;;21.90;57.50;;;;;;4800009;29;20090;-74
2022/07/13 00:41:19;;;;;;;2.25;1.65;;;21.90;57.50;;;;;;4814315;29;20373;-74
2022/07/13 00:43:45;;;;;;;3.38;1.50;;;21.90;57.30;;;;;;4814525;29;20406;-75
2022/07/13 00:46:10;;;;;;;3.67;1.67;;;21.90;57.70;;;;;;4814703;29;20542;-74
2022/07/13 00:48:38;;;;;;;2.92;1.90;;;21.90;57.30;;;;;;4813885;29;20070;-74
2022/07/13 00:51:06;;;;;;;5.65;1.80;;;21.90;57.40;;;;;;4828767;29;20026;-74
2022/07/13 00:53:34;;;;;;;4.55;1.83;;;21.90;57.30;;;;;;4800015;29;20506;-74
2022/07/13 00:56:02;;;;;;;4.50;2.10;;;21.90;57.40;;;;;;4813918;29;20023;-75
2022/07/13 00:58:28;;;;;;;4.90;1.95;;;21.90;57.30;;;;;;4843334;29;20039;-74
2022/07/13 01:00:55;;;;;;;2.42;1.50;;;21.90;57.30;;;;;;4843900;29;20072;-74
2022/07/13 01:03:20;;;;;;;3.78;2.05;;;21.90;57.30;;;;;;4814136;29;20035;-74
2022/07/13 01:05:47;;;;;;;2.40;1.42;;;21.90;57.30;;;;;;4842963;29;20041;-74
2022/07/13 01:08:13;;;;;;;3.08;1.40;;;21.90;57.50;;;;;;4814466;29;20034;-75
2022/07/13 01:10:42;;;;;;;2.95;1.98;;;21.90;57.40;;;;;;4813954;29;20031;-74
2022/07/13 01:13:10;;;;;;;3.05;1.88;;;21.90;57.40;;;;;;4828134;29;20035;-74
2022/07/13 01:15:37;;;;;;;3.80;2.13;;;21.90;57.40;;;;;;4813766;29;20038;-74
2022/07/13 01:18:04;;;;;;;4.82;2.08;;;21.90;57.30;;;;;;4799186;29;20133;-74
2022/07/13 01:20:31;;;;;;;2.95;2.00;;;21.90;57.40;;;;;;4813821;29;20095;-74
2022/07/13 01:22:57;;;;;;;4.28;1.60;;;21.90;57.10;;;;;;4829257;29;20038;-74
2022/07/13 01:25:23;;;;;;;3.00;1.67;;;21.90;57.60;;;;;;4798580;29;20042;-74
2022/07/13 01:27:49;;;;;;;5.70;1.67;;;21.90;57.40;;;;;;4813584;29;20038;-74
2022/07/13 01:30:16;;;;;;;2.72;1.50;;;21.90;57.10;;;;;;4799023;29;20109;-74
2022/07/13 01:32:46;;;;;;;2.30;1.60;;;21.90;57.30;;;;;;4814953;29;20041;-75
2022/07/13 01:35:14;;;;;;;3.20;1.65;;;21.90;57.30;;;;;;4812217;29;20060;-74
2022/07/13 01:37:41;;;;;;;3.50;1.50;;;21.90;57.60;;;;;;4851240;29;20558;-74
2022/07/13 01:40:07;;;;;;;1.98;1.42;;;22.00;57.60;;;;;;4823497;29;20038;-74
2022/07/13 01:42:46;;;;;;;2.33;1.52;;;21.90;57.50;;;;;;4808440;29;20030;-75
2022/07/13 01:45:14;;;;;;;2.83;1.53;;;22.00;57.40;;;;;;4824227;29;20030;-74
2022/07/13 01:47:42;;;;;;;3.97;1.83;;;22.00;57.70;;;;;;4838558;29;20042;-75
2022/07/13 01:50:10;;;;;;;2.70;1.52;;;22.00;57.50;;;;;;4853883;29;20146;-74
2022/07/13 01:52:36;;;;;;;3.85;1.60;;;22.00;57.60;;;;;;4838536;29;20038;-75
2022/07/13 01:55:03;;;;;;;2.30;1.50;;;22.00;57.60;;;;;;4808188;29;20030;-74
2022/07/13 01:57:29;;;;;;;2.55;1.25;;;22.00;57.50;;;;;;4838402;29;20039;-74
2022/07/13 02:00:06;;;;;;;2.25;1.40;;;21.90;57.60;;;;;;4823266;29;20082;-75
2022/07/13 02:02:38;;;;;;;2.70;1.40;;;22.00;57.50;;;;;;4824379;29;20104;-74
2022/07/13 02:05:05;;;;;;;2.45;1.67;;;21.90;57.30;;;;;;4822938;29;20106;-74
2022/07/13 02:07:31;;;;;;;3.20;1.50;;;22.00;57.70;;;;;;4853341;29;20117;-74
2022/07/13 02:09:57;;;;;;;3.85;1.35;;;22.00;57.70;;;;;;4853524;29;20030;-74
2022/07/13 02:12:23;;;;;;;4.45;1.58;;;22.00;57.60;;;;;;4853216;29;20034;-75
2022/07/13 02:14:49;;;;;;;1.90;1.45;;;21.90;57.40;;;;;;4822987;29;20159;-75
2022/07/13 02:17:16;;;;;;;2.00;1.38;;;21.90;57.50;;;;;;4837795;29;20042;-75
2022/07/13 02:19:46;;;;;;;2.45;1.27;;;21.90;57.30;;;;;;4824137;29;20094;-74
2022/07/13 02:22:12;;;;;;;2.83;1.88;;;21.90;57.50;;;;;;4823061;29;20446;-74
2022/07/13 02:24:38;;;;;;;1.50;1.30;;;21.90;57.30;;;;;;4846381;29;20505;-74
2022/07/13 02:27:04;;;;;;;3.50;1.42;;;21.90;57.70;;;;;;4826853;29;20038;-75
2022/07/13 02:29:30;;;;;;;2.40;1.48;;;21.90;57.50;;;;;;4836095;29;20029;-78
2022/07/13 02:31:56;;;;;;;3.35;1.40;;;21.90;58.10;;;;;;4826597;29;20037;-76
2022/07/13 02:34:26;;;;;;;10.10;2.47;;;22.00;57.80;;;;;;4849706;29;20045;-76
2022/07/13 02:36:56;;;;;;;3.97;1.65;;;21.90;58.20;;;;;;4807324;29;20043;-77
2022/07/13 02:39:22;;;;;;;5.88;1.52;;;22.00;57.70;;;;;;4826435;29;20435;-76
2022/07/13 02:41:49;;;;;;;4.28;1.35;;;22.00;57.90;;;;;;4824861;29;20034;-75
2022/07/13 02:44:17;;;;;;;7.47;1.63;;;22.00;57.80;;;;;;4829980;29;20031;-75
2022/07/13 02:46:43;;;;;;;2.63;1.40;;;22.00;57.80;;;;;;4823250;29;20052;-76
2022/07/13 02:49:09;;;;;;;6.18;1.92;;;22.00;57.90;;;;;;4837704;29;20107;-75
2022/07/13 02:51:35;;;;;;;5.55;1.60;;;22.00;57.80;;;;;;4837588;29;20037;-75
2022/07/13 02:54:02;;;;;;;2.97;1.58;;;22.00;57.50;;;;;;4837596;29;20031;-75
2022/07/13 02:56:29;;;;;;;2.65;1.40;;;22.00;58.00;;;;;;4822027;29;20034;-76
2022/07/13 02:58:54;;;;;;;4.25;1.52;;;22.00;58.20;;;;;;4837555;29;20535;-76
2022/07/13 03:01:20;;;;;;;5.32;1.60;;;21.90;57.70;;;;;;4837494;29;20114;-76
2022/07/13 03:03:46;;;;;;;3.67;1.30;;;21.90;57.60;;;;;;4822381;29;20058;-75
2022/07/13 03:06:13;;;;;;;2.10;1.10;;;21.90;57.50;;;;;;4821854;29;20042;-75
2022/07/13 03:08:39;;;;;;;4.50;1.48;;;21.90;57.40;;;;;;4837529;29;20034;-75
2022/07/13 03:11:05;;;;;;;2.55;1.52;;;22.00;57.40;;;;;;4822442;29;20034;-75
2022/07/13 03:13:31;;;;;;;4.22;1.30;;;21.90;57.60;;;;;;4837307;29;20109;-75
2022/07/13 03:15:58;;;;;;;3.90;1.67;;;21.90;57.40;;;;;;4821674;29;20544;-75
2022/07/13 03:18:24;;;;;;;4.00;1.55;;;22.00;57.30;;;;;;4837185;29;20030;-75
2022/07/13 03:20:50;;;;;;;2.78;1.52;;;22.00;57.30;;;;;;4822385;29;20049;-75
2022/07/13 03:23:16;;;;;;;2.25;1.40;;;22.00;57.30;;;;;;4821363;29;20035;-76
2022/07/13 03:25:42;;;;;;;2.75;1.30;;;22.00;57.30;;;;;;4822837;29;20042;-75
2022/07/13 03:28:09;;;;;;;2.63;1.58;;;22.00;57.40;;;;;;4836975;29;20034;-75
2022/07/13 03:30:35;;;;;;;2.08;1.40;;;22.00;57.50;;;;;;4837043;29;20053;-75
2022/07/13 03:33:01;;;;;;;2.25;1.50;;;22.00;57.60;;;;;;4837316;29;20041;-76
2022/07/13 03:35:27;;;;;;;1.92;1.17;;;22.00;57.60;;;;;;4821675;29;20038;-75
2022/07/13 03:37:53;;;;;;;2.35;1.52;;;22.00;57.50;;;;;;4822044;29;20035;-75
2022/07/13 03:40:22;;;;;;;1.85;1.25;;;22.00;57.60;;;;;;4837396;29;20035;-75
2022/07/13 03:42:50;;;;;;;4.18;1.70;;;22.00;57.70;;;;;;4821862;29;20034;-75
2022/07/13 03:45:16;;;;;;;2.22;1.30;;;22.00;57.60;;;;;;4836479;29;20042;-75
2022/07/13 03:47:42;;;;;;;4.30;1.40;;;22.00;57.70;;;;;;4806701;29;20152;-75
2022/07/13 03:50:09;;;;;;;2.42;1.45;;;22.00;57.60;;;;;;4836968;29;20039;-75
2022/07/13 03:52:35;;;;;;;4.65;1.45;;;22.00;57.70;;;;;;4821903;29;20042;-75
2022/07/13 03:55:02;;;;;;;4.47;1.70;;;22.00;57.60;;;;;;4821827;29;20109;-75
2022/07/13 03:57:29;;;;;;;2.20;1.50;;;22.00;57.60;;;;;;4821392;29;20113;-75
2022/07/13 03:59:55;;;;;;;2.95;1.38;;;22.00;57.70;;;;;;4837080;29;20109;-75
2022/07/13 04:02:21;;;;;;;3.45;1.33;;;22.00;57.70;;;;;;4821791;29;20113;-75
2022/07/13 04:04:48;;;;;;;2.60;1.40;;;22.00;57.60;;;;;;4836807;29;20045;-75
2022/07/13 04:07:13;;;;;;;2.55;1.60;;;22.00;57.60;;;;;;4822413;29;20043;-75
2022/07/13 04:09:40;;;;;;;2.15;1.30;;;22.00;57.70;;;;;;4836775;29;20083;-75
2022/07/13 04:12:06;;;;;;;2.92;1.50;;;22.00;57.70;;;;;;4836736;29;20027;-75
2022/07/13 04:14:32;;;;;;;2.97;1.30;;;22.00;57.70;;;;;;4836690;29;20023;-75
2022/07/13 04:17:01;;;;;;;2.55;1.50;;;22.00;57.70;;;;;;4836184;29;20414;-75
2022/07/13 04:19:27;;;;;;;2.73;1.50;;;22.00;57.70;;;;;;4836716;29;20034;-76
2022/07/13 04:21:53;;;;;;;2.88;1.48;;;22.00;57.70;;;;;;4836781;29;20031;-76
2022/07/13 04:24:19;;;;;;;2.58;1.40;;;22.00;57.80;;;;;;4821422;29;20042;-75
2022/07/13 04:26:47;;;;;;;3.33;1.35;;;22.00;57.70;;;;;;4836124;29;20110;-75
2022/07/13 04:29:13;;;;;;;2.55;1.40;;;22.00;57.70;;;;;;4821385;29;20077;-76
2022/07/13 04:31:40;;;;;;;1.95;1.45;;;22.00;57.70;;;;;;4836626;29;20058;-75
2022/07/13 04:34:05;;;;;;;2.97;1.58;;;22.00;57.70;;;;;;4837647;29;20085;-75
2022/07/13 04:36:32;;;;;;;2.90;1.40;;;22.00;57.90;;;;;;4825397;29;20502;-75
2022/07/13 04:38:58;;;;;;;2.85;1.30;;;22.00;57.80;;;;;;4839901;29;20035;-75
2022/07/13 04:41:24;;;;;;;2.47;1.27;;;22.00;57.70;;;;;;4839867;29;20460;-76
2022/07/13 04:43:52;;;;;;;2.50;1.50;;;22.00;57.80;;;;;;4839806;29;20065;-76
2022/07/13 04:46:19;;;;;;;1.95;1.48;;;22.00;57.80;;;;;;4839305;29;20399;-75
2022/07/13 04:48:48;;;;;;;2.00;1.30;;;22.00;57.80;;;;;;4825564;29;20476;-75
2022/07/13 04:51:14;;;;;;;4.47;1.60;;;22.00;57.80;;;;;;4825567;29;20061;-75
2022/07/13 04:53:43;;;;;;;2.57;1.47;;;22.00;57.80;;;;;;4839586;29;20030;-75
2022/07/13 04:56:12;;;;;;;3.22;1.30;;;22.00;57.80;;;;;;4839212;29;20286;-75
2022/07/13 04:58:38;;;;;;;1.92;1.40;;;22.00;57.90;;;;;;4824095;29;20081;-75
2022/07/13 05:01:07;;;;;;;2.22;1.50;;;22.00;57.90;;;;;;4794426;29;20480;-75
2022/07/13 05:03:34;;;;;;;3.03;1.50;;;22.00;57.80;;;;;;4825652;29;20031;-76
2022/07/13 05:06:00;;;;;;;2.72;1.40;;;22.00;57.80;;;;;;4838957;29;20045;-76
2022/07/13 05:08:27;;;;;;;2.78;1.63;;;22.00;57.80;;;;;;4839373;29;20062;-75
2022/07/13 05:10:53;;;;;;;3.45;1.80;;;22.00;57.90;;;;;;4823987;29;20034;-75
2022/07/13 05:13:19;;;;;;;3.00;1.48;;;22.00;57.90;;;;;;4824033;29;20027;-76
2022/07/13 05:15:48;;;;;;;3.72;1.40;;;22.00;58.50;;;;;;4823626;29;20113;-75
2022/07/13 05:18:15;;;;;;;1.90;1.27;;;22.00;57.90;;;;;;4839129;29;20122;-75
2022/07/13 05:20:41;;;;;;;2.92;1.70;;;22.00;57.90;;;;;;4839264;29;20049;-75
2022/07/13 05:23:07;;;;;;;2.92;1.80;;;22.00;57.90;;;;;;4825169;29;20476;-75
2022/07/13 05:25:35;;;;;;;2.08;1.15;;;22.00;57.90;;;;;;4838728;29;20034;-75
2022/07/13 05:28:03;;;;;;;3.28;1.77;;;22.00;58.00;;;;;;4808945;29;20372;-75
2022/07/13 05:30:29;;;;;;;2.67;1.65;;;22.00;57.90;;;;;;4839023;29;20042;-76
2022/07/13 05:32:56;;;;;;;3.25;1.63;;;22.00;57.90;;;;;;4839051;29;20483;-75
2022/07/13 05:35:22;;;;;;;2.92;1.70;;;22.10;58.00;;;;;;4823366;29;20064;-75
2022/07/13 05:37:48;;;;;;;4.50;1.85;;;22.00;58.00;;;;;;4838857;29;20095;-75
2022/07/13 05:40:14;;;;;;;2.63;1.77;;;22.00;58.00;;;;;;4808695;29;20117;-75
2022/07/13 05:42:40;;;;;;;2.92;1.50;;;22.00;58.00;;;;;;4838885;29;20037;-75
2022/07/13 05:45:07;;;;;;;2.83;1.48;;;22.00;58.00;;;;;;4838135;29;20031;-75
2022/07/13 05:47:33;;;;;;;1.80;1.30;;;22.10;58.00;;;;;;4823024;29;20041;-75
2022/07/13 05:49:59;;;;;;;2.33;1.65;;;22.10;58.00;;;;;;4838619;29;20034;-75
2022/07/13 05:52:26;;;;;;;2.60;1.25;;;22.00;58.00;;;;;;4838694;29;20491;-75
2022/07/13 05:54:54;;;;;;;2.83;1.60;;;22.00;58.10;;;;;;4823799;29;20121;-75
2022/07/13 05:57:20;;;;;;;1.83;1.30;;;22.00;58.00;;;;;;4822967;29;20415;-75
2022/07/13 05:59:46;;;;;;;4.20;1.33;;;22.00;58.10;;;;;;4824573;29;20035;-76
2022/07/13 06:02:12;;;;;;;3.50;1.52;;;22.10;58.20;;;;;;4823422;29;20034;-75
2022/07/13 06:04:38;;;;;;;2.53;1.27;;;22.00;58.70;;;;;;4823137;29;20041;-75
2022/07/13 06:07:03;;;;;;;2.90;1.38;;;22.00;58.10;;;;;;4838170;29;20046;-76
2022/07/13 06:09:29;;;;;;;1.90;1.33;;;22.00;58.10;;;;;;4823135;29;20117;-76
2022/07/13 06:11:55;;;;;;;3.30;1.52;;;22.00;58.10;;;;;;4824227;29;20034;-75
2022/07/13 06:14:23;;;;;;;3.55;1.67;;;22.00;58.10;;;;;;4824240;29;20037;-75
2022/07/13 06:16:49;;;;;;;2.53;1.52;;;22.00;58.10;;;;;;4822643;29;20060;-76
2022/07/13 06:19:14;;;;;;;2.15;1.45;;;22.00;58.10;;;;;;4824187;29;20523;-75
2022/07/13 06:21:40;;;;;;;2.08;1.40;;;22.00;58.10;;;;;;4838037;29;20476;-75
2022/07/13 06:24:06;;;;;;;2.88;1.52;;;22.00;58.10;;;;;;4824072;29;20069;-75
2022/07/13 06:26:32;;;;;;;1.92;1.50;;;22.00;58.20;;;;;;4823586;29;20034;-75
2022/07/13 06:28:57;;;;;;;3.03;1.45;;;22.00;58.10;;;;;;4824163;29;20023;-75
2022/07/13 06:31:23;;;;;;;2.22;1.55;;;22.00;58.20;;;;;;4823005;29;20452;-75
2022/07/13 06:33:51;;;;;;;2.15;1.50;;;22.00;58.20;;;;;;4823894;29;20022;-75
2022/07/13 06:36:18;;;;;;;1.58;1.33;;;22.00;58.20;;;;;;4822589;29;20038;-76
2022/07/13 06:38:43;;;;;;;2.92;1.50;;;22.00;58.20;;;;;;4823922;29;20041;-76
2022/07/13 06:41:09;;;;;;;2.58;1.85;;;22.00;58.20;;;;;;4837795;29;20030;-75
2022/07/13 06:43:35;;;;;;;2.50;1.70;;;22.00;58.20;;;;;;4823767;29;20060;-76
2022/07/13 06:46:01;;;;;;;1.70;1.40;;;22.00;58.20;;;;;;4823317;29;20042;-76
2022/07/13 06:48:27;;;;;;;2.88;1.40;;;22.00;58.30;;;;;;4822433;29;20045;-76
2022/07/13 06:50:53;;;;;;;2.05;1.40;;;22.00;58.20;;;;;;4823752;29;20027;-76
2022/07/13 06:53:18;;;;;;;2.53;1.52;;;22.00;58.30;;;;;;4823817;29;20168;-76
2022/07/13 06:55:45;;;;;;;2.03;1.30;;;22.10;58.30;;;;;;4837146;29;20035;-76
2022/07/13 06:58:10;;;;;;;2.30;1.35;;;22.00;58.30;;;;;;4837351;29;20039;-76
2022/07/13 07:00:36;;;;;;;2.63;1.40;;;22.10;58.30;;;;;;4823698;29;20030;-76
2022/07/13 07:03:02;;;;;;;1.92;1.35;;;22.10;58.40;;;;;;4823463;29;20041;-76
2022/07/13 07:05:28;;;;;;;1.80;1.40;;;22.10;58.30;;;;;;4837137;29;20034;-76
2022/07/13 07:07:54;;;;;;;2.22;1.50;;;22.10;58.30;;;;;;4837305;29;20034;-76
2022/07/13 07:10:19;;;;;;;1.90;1.30;;;22.10;58.40;;;;;;4822523;29;20033;-76
2022/07/13 07:12:45;;;;;;;2.67;1.63;;;22.10;58.30;;;;;;4792549;29;20479;-76
2022/07/13 07:15:11;;;;;;;1.73;1.20;;;22.10;58.30;;;;;;4823108;29;20034;-76
2022/07/13 07:17:47;;;;;;;2.22;1.52;;;22.10;58.40;;;;;;4821990;29;20423;-76
2022/07/13 07:20:13;;;;;;;2.58;1.60;;;22.10;58.30;;;;;;4823425;29;20034;-76
2022/07/13 07:22:39;;;;;;;2.33;1.50;;;22.10;58.30;;;;;;4822151;29;20121;-76
2022/07/13 07:25:07;;;;;;;2.25;1.55;;;22.10;58.30;;;;;;4821868;29;20114;-76
2022/07/13 07:27:33;;;;;;;3.20;1.60;;;22.10;58.30;;;;;;4821935;29;20045;-76
2022/07/13 07:29:59;;;;;;;2.03;1.45;;;22.10;58.40;;;;;;4806808;29;20113;-76
2022/07/13 07:32:24;;;;;;;2.47;1.42;;;22.10;58.40;;;;;;4822164;29;20138;-76
2022/07/13 07:34:50;;;;;;;2.42;1.48;;;22.10;58.40;;;;;;4823236;29;20091;-76
2022/07/13 07:37:20;;;;;;;3.50;1.60;;;22.10;58.40;;;;;;4822774;29;20039;-76
2022/07/13 07:39:46;;;;;;;1.85;1.30;;;22.10;59.00;;;;;;4806913;29;20042;-76
2022/07/13 07:42:12;;;;;;;2.38;1.65;;;22.10;58.40;;;;;;4837072;29;20034;-76
2022/07/13 07:44:38;;;;;;;3.83;1.50;;;22.10;58.40;;;;;;4822993;29;20038;-76
2022/07/13 07:47:04;;;;;;;1.90;1.40;;;22.10;58.40;;;;;;4836492;29;20518;-76
2022/07/13 07:49:29;;;;;;;2.15;1.38;;;22.10;58.50;;;;;;4821842;29;20495;-76
2022/07/13 07:51:55;;;;;;;2.78;1.45;;;22.10;58.40;;;;;;4822973;29;20033;-76
2022/07/13 07:54:21;;;;;;;2.20;1.35;;;22.10;58.40;;;;;;4806459;29;20042;-76
2022/07/13 07:56:48;;;;;;;2.38;1.33;;;22.10;58.50;;;;;;4836484;29;20057;-76
2022/07/13 07:59:14;;;;;;;2.08;1.42;;;22.10;59.10;;;;;;4836753;29;20096;-76
2022/07/13 08:01:41;;;;;;;2.50;1.50;;;22.10;58.50;;;;;;4822917;29;20030;-76
2022/07/13 08:04:07;;;;;;;2.50;1.50;;;22.10;58.50;;;;;;4821864;29;20037;-76
2022/07/13 08:06:33;;;;;;;1.58;1.17;;;22.20;58.50;;;;;;4821309;29;20045;-76
2022/07/13 08:08:59;;;;;;;2.53;1.40;;;22.10;58.50;;;;;;4823692;29;20030;-76
2022/07/13 08:11:25;;;;;;;1.80;1.35;;;22.10;58.50;;;;;;4826258;29;20026;-76
2022/07/13 08:13:51;;;;;;;2.33;1.60;;;22.10;58.50;;;;;;4824984;29;20026;-76
2022/07/13 08:16:18;;;;;;;2.53;1.58;;;22.10;58.60;;;;;;4824413;29;20055;-76
2022/07/13 08:18:45;;;;;;;2.05;1.42;;;22.10;58.60;;;;;;4825040;29;20395;-76
2022/07/13 08:21:11;;;;;;;2.55;1.50;;;22.10;58.60;;;;;;4826036;29;20037;-76
2022/07/13 08:23:52;;;;;;;3.08;1.48;;;22.10;58.60;;;;;;4826102;29;20038;-76
2022/07/13 08:26:27;;;;;;;2.38;1.48;;;22.20;58.60;;;;;;4839615;29;20113;-76
2022/07/13 08:28:55;;;;;;;2.72;1.30;;;22.10;58.60;;;;;;4825907;29;20057;-76
2022/07/13 08:31:22;;;;;;;2.75;1.65;;;22.10;59.20;;;;;;4825761;29;20037;-76
2022/07/13 08:39:21;;;;;;;2.20;1.55;;;22.20;58.60;;;;;;4825673;29;20117;-76
2022/07/13 08:41:48;;;;;;;1.88;1.30;;;22.20;58.60;;;;;;4825680;29;20035;-76
2022/07/13 08:44:17;;;;;;;2.22;1.50;;;22.20;58.60;;;;;;4825594;29;20049;-76
2022/07/13 08:46:43;;;;;;;2.65;1.48;;;22.20;59.00;;;;;;4809123;29;20038;-76
2022/07/13 08:49:09;;;;;;;1.80;1.40;;;22.20;58.70;;;;;;4824375;29;20050;-76
2022/07/13 08:51:36;;;;;;;2.30;1.55;;;22.20;58.70;;;;;;4825570;29;20030;-76
2022/07/13 08:54:04;;;;;;;1.98;1.40;;;22.20;58.70;;;;;;4825740;29;20022;-76
2022/07/13 08:56:32;;;;;;;2.88;1.60;;;22.20;58.70;;;;;;4825047;29;20084;-75
2022/07/13 08:59:01;;;;;;;2.38;1.60;;;22.20;58.70;;;;;;4824184;29;20483;-76
2022/07/13 09:01:27;;;;;;;2.83;1.55;;;22.30;58.70;;;;;;4825420;29;20031;-76
2022/07/13 09:03:53;;;;;;;3.05;1.50;;;22.30;58.70;;;;;;4825316;29;20507;-76
2022/07/13 09:06:43;;;;;;;2.42;1.63;;;22.30;58.70;;;;;;4825040;29;20026;-76
2022/07/13 09:09:38;;;;;;;2.17;1.58;;;22.30;58.60;;;;;;4825247;29;20077;-76
2022/07/13 09:12:14;;;;;;;2.28;1.40;;;22.30;58.60;;;;;;4824022;29;20086;-76
2022/07/13 09:14:40;;;;;;;2.17;1.50;;;22.30;58.60;;;;;;4839441;29;20376;-75
2022/07/13 09:17:06;;;;;;;2.55;1.45;;;22.30;58.60;;;;;;4824748;29;20037;-75
2022/07/13 09:19:40;;;;;;;1.65;1.30;;;22.30;58.60;;;;;;4839264;29;20503;-76
2022/07/13 09:22:12;;;;;;;2.05;1.38;;;22.30;58.60;;;;;;4824282;29;20062;-76
2022/07/13 09:24:45;;;;;;;2.10;1.38;;;22.30;58.60;;;;;;4825019;29;20057;-75
2022/07/13 09:27:13;;;;;;;2.13;1.50;;;22.30;58.70;;;;;;4824593;29;20061;-75
2022/07/13 09:29:39;;;;;;;2.00;1.30;;;22.30;58.70;;;;;;4824965;29;20030;-75
2022/07/13 09:32:11;;;;;;;2.03;1.50;;;22.30;58.70;;;;;;4823887;29;20126;-76
2022/07/13 09:34:53;;;;;;;2.08;1.40;;;22.30;58.80;;;;;;4825165;29;20503;-75
2022/07/13 09:37:21;;;;;;;2.17;1.48;;;22.20;58.80;;;;;;4824444;29;20453;-75
2022/07/13 09:40:06;;;;;;;1.98;1.40;;;22.30;58.80;;;;;;4823538;29;20110;-75
2022/07/13 09:42:40;;;;;;;1.50;1.20;;;22.30;58.80;;;;;;4824783;29;20037;-75
2022/07/13 09:47:54;;;;;;;1.80;1.23;;;22.30;58.90;;;;;;4824650;29;20039;-75
2022/07/13 09:50:24;;;;;;;1.45;1.23;;;22.20;58.80;;;;;;4823443;29;20030;-75
2022/07/13 09:52:53;;;;;;;3.00;1.58;;;22.30;58.90;;;;;;4838584;29;20027;-75
2022/07/13 09:55:22;;;;;;;1.93;1.30;;;22.30;58.90;;;;;;4824375;29;20030;-75
2022/07/13 09:57:59;;;;;;;2.40;1.50;;;22.20;58.90;;;;;;4824364;29;20501;-75
2022/07/13 10:00:26;;;;;;;1.80;1.40;;;22.30;59.00;;;;;;4824583;29;20032;-75
2022/07/13 10:02:52;;;;;;;1.88;1.50;;;22.30;59.00;;;;;;4824566;29;20045;-75
2022/07/13 10:05:19;;;;;;;2.33;1.50;;;22.30;58.90;;;;;;4824172;29;20038;-75
2022/07/13 10:07:47;;;;;;;1.73;1.33;;;22.30;59.00;;;;;;4822974;29;20038;-75
2022/07/13 10:10:14;;;;;;;2.15;1.52;;;22.30;59.00;;;;;;4823070;29;20506;-75
2022/07/13 10:12:41;;;;;;;2.20;1.58;;;22.30;59.00;;;;;;4838245;29;20034;-75
2022/07/13 10:15:08;;;;;;;1.50;1.20;;;22.30;59.00;;;;;;4822866;29;20037;-75
2022/07/13 10:17:34;;;;;;;1.80;1.23;;;22.30;59.00;;;;;;4823019;29;20044;-75
2022/07/13 10:20:16;;;;;;;2.05;1.40;;;22.30;59.00;;;;;;4824154;29;20031;-76
2022/07/13 10:22:48;;;;;;;1.60;1.30;;;22.30;59.00;;;;;;4808362;29;20419;-76
2022/07/13 10:25:17;;;;;;;2.00;1.50;;;22.30;59.00;;;;;;4823993;29;20487;-76
2022/07/13 10:27:43;;;;;;;1.98;1.33;;;22.30;59.00;;;;;;4822845;29;20038;-75
2022/07/13 10:30:22;;;;;;;1.95;1.35;;;22.30;59.00;;;;;;4822998;29;20064;-76
2022/07/13 10:32:48;;;;;;;1.75;1.33;;;22.30;59.00;;;;;;4823816;29;20484;-76
2022/07/13 10:35:20;;;;;;;2.78;1.50;;;22.30;59.00;;;;;;4823531;29;20034;-75
2022/07/13 10:37:58;;;;;;;1.88;1.25;;;22.30;59.00;;;;;;4823848;29;20038;-75
2022/07/13 10:40:28;;;;;;;1.50;1.13;;;22.30;59.00;;;;;;4822815;29;20506;-76
2022/07/13 10:42:53;;;;;;;1.63;1.30;;;22.30;59.10;;;;;;4824519;29;20030;-75
2022/07/13 10:45:37;;;;;;;2.53;1.50;;;22.30;59.10;;;;;;4822327;29;20040;-76
2022/07/13 10:48:21;;;;;;;3.45;1.40;;;22.30;59.10;;;;;;4823747;29;20046;-76
2022/07/13 10:50:51;;;;;;;2.42;1.30;;;22.30;59.10;;;;;;4823802;29;20034;-76
2022/07/13 10:53:17;;;;;;;1.38;1.17;;;22.30;59.10;;;;;;4823851;29;20034;-75
2022/07/13 10:55:50;;;;;;;1.98;1.20;;;22.30;59.10;;;;;;4837401;29;20121;-76
2022/07/13 10:58:31;;;;;;;1.80;1.40;;;22.30;59.00;;;;;;4822413;29;20146;-76
2022/07/13 11:01:02;;;;;;;2.10;1.27;;;22.40;59.10;;;;;;4823770;29;20041;-76
2022/07/13 11:03:42;;;;;;;2.58;1.50;;;22.40;59.10;;;;;;4822601;29;20405;-75
2022/07/13 11:06:08;;;;;;;;;;;22.30;59.00;;;;;;4823546;29;20041;-76
2022/07/13 11:08:35;;;;;;;1.58;1.20;;;22.40;59.10;;;;;;4823520;29;19968;-75
2022/07/13 11:11:16;;;;;;;1.85;1.42;;;22.40;59.10;;;;;;4823457;29;20026;-75
2022/07/13 11:13:49;;;;;;;1.50;1.20;;;22.40;59.10;;;;;;4823440;29;20066;-76
2022/07/13 11:16:48;;;;;;;1.88;1.23;;;22.40;59.10;;;;;;4822936;29;20034;-75
2022/07/13 11:19:15;;;;;;;1.52;1.20;;;22.40;59.10;;;;;;4823271;29;20045;-76
2022/07/13 11:22:03;;;;;;;1.25;1.13;;;22.40;59.10;;;;;;4823382;29;20072;-76
2022/07/13 11:27:58;;;;;;;2.00;1.30;;;22.30;59.10;;;;;;4802644;29;20049;-76
2022/07/13 11:30:29;;;;;;;2.20;1.38;;;22.30;59.20;;;;;;4802938;29;20042;-77
2022/07/13 11:32:55;;;;;;;1.80;1.30;;;22.30;59.20;;;;;;4815373;29;20472;-77
2022/07/13 11:35:21;;;;;;;1.90;1.40;;;22.30;59.20;;;;;;4822832;29;20077;-77
2022/07/13 11:37:48;;;;;;;1.50;1.10;;;22.40;59.30;;;;;;4821887;29;20087;-78
2022/07/13 11:40:28;;;;;;;2.05;1.30;;;22.30;59.30;;;;;;4836978;29;20555;-78
2022/07/13 11:42:54;;;;;;;2.15;1.27;;;22.30;59.30;;;;;;4822817;29;20357;-78
2022/07/13 11:45:30;;;;;;;1.80;1.30;;;22.30;59.30;;;;;;4836467;29;20030;-77
2022/07/13 11:48:06;;;;;;;1.65;1.13;;;22.30;59.40;;;;;;4822956;29;20125;-76
2022/07/13 11:50:47;;;;;;;2.92;1.60;;;22.30;59.30;;;;;;4822900;29;20042;-77
2022/07/13 11:53:30;;;;;;;1.80;1.45;;;22.30;59.30;;;;;;4836972;29;20399;-77
2022/07/13 11:55:58;;;;;;;1.70;1.08;;;22.30;59.30;;;;;;4836610;29;20034;-77
2022/07/13 11:58:31;;;;;;;1.73;1.20;;;22.30;59.30;;;;;;4823049;29;20046;-76
2022/07/13 12:01:08;;;;;;;1.77;1.48;;;22.30;59.40;;;;;;4822917;29;20040;-77
2022/07/13 12:03:34;;;;;;;1.50;1.20;;;22.30;59.40;;;;;;4823129;29;20034;-76
2022/07/13 12:06:06;;;;;;;1.80;1.30;;;22.30;59.40;;;;;;4822409;29;20059;-77
2022/07/13 12:08:40;;;;;;;2.20;1.40;;;22.30;59.40;;;;;;4836858;29;20046;-76
2022/07/13 12:11:16;;;;;;;2.05;1.40;;;22.30;59.40;;;;;;4806615;29;20387;-77
2022/07/13 12:13:45;;;;;;;1.77;1.25;;;22.30;59.40;;;;;;4822851;29;20488;-77
2022/07/13 12:16:13;;;;;;;1.70;1.35;;;22.30;59.40;;;;;;4822204;29;20108;-77
2022/07/13 12:19:18;;;;;;;1.58;1.25;;;22.30;59.40;;;;;;4821546;29;20057;-77
2022/07/13 12:21:59;;;;;;;2.15;1.40;;;22.30;59.40;;;;;;4793332;29;20174;-77
2022/07/13 12:24:25;;;;;;;1.65;1.40;;;22.30;59.40;;;;;;4823830;29;20130;-76
2022/07/13 12:26:53;;;;;;;1.30;1.20;;;22.30;59.40;;;;;;4821062;29;20043;-75
2022/07/13 12:29:30;;;;;;;2.03;1.30;;;22.30;59.40;;;;;;4822669;29;20403;-76
2022/07/13 12:31:57;;;;;;;1.85;1.20;;;22.30;59.40;;;;;;4822606;29;20030;-76
2022/07/13 12:34:23;;;;;;;2.25;1.30;;;22.30;59.40;;;;;;4822835;29;20387;-76
2022/07/13 12:36:50;;;;;;;2.05;1.40;;;22.40;59.40;;;;;;4831665;29;20069;-77
2022/07/13 12:39:40;;;;;;;4.45;2.10;;;22.40;59.40;;;;;;4816606;29;20058;-79
2022/07/13 12:42:07;;;;;;;7.88;2.33;;;22.40;59.60;;;;;;4817067;29;20069;-74
2022/07/13 12:44:35;;;;;;;5.00;2.15;;;22.40;59.50;;;;;;4819310;29;20092;-80
2022/07/13 12:47:02;;;;;;;14.00;2.63;;;22.40;58.50;;;;;;4809744;29;20087;-81
2022/07/13 12:49:29;;;;;;;5.50;2.10;;;22.50;58.20;;;;;;4841891;29;20038;-80
2022/07/13 12:51:56;;;;;;;11.30;2.67;;;22.50;58.00;;;;;;4825804;29;20395;-78
2022/07/13 12:54:40;;;;;;;10.45;2.35;;;22.60;59.60;;;;;;4829712;29;20495;-77
2022/07/13 12:57:11;;;;;;;5.55;1.63;;;22.50;59.00;;;;;;4841404;29;20042;-78
2022/07/13 12:59:37;;;;;;;7.78;1.90;;;22.50;59.50;;;;;;4827431;29;20037;-79
2022/07/13 13:02:03;;;;;;;5.90;1.80;;;22.50;59.80;;;;;;4834965;29;20044;-79
2022/07/13 13:04:29;;;;;;;8.68;2.20;;;22.50;60.10;;;;;;4838620;29;20071;-79
2022/07/13 13:06:55;;;;;;;4.13;1.80;;;22.50;60.50;;;;;;4837966;29;20030;-78